Maplewood, Ohio
Current Conditions -  °F | °C
As of 2:10 AM on Saturday 29 Nov 2014 (Local Time) from KEDJ Reporting Station
Clear Clear  
Wind Chill: 20°   Ceiling: Unl
Heat Index: 30°   Visibility: 10mi
Dew Point: 19°   Wind: 13mph
Humidity: 64%   Direction: 150°SSE
Pressure: 30.04"   Gusts: NA
Location:  40.38°N, 84.03°W
Report Text: KEDJ 290710Z AUTO 15011KT 10SM CLR M01/M07 A3004 RMK AO1
Loading
Personal Weather Stations






























Interactive Weather Map New forecast layout! Learn more

10-Day Weather Forecast

Advertisements
Track Severe Weather on mobile